Time;durP1;ratioP1;P1;durP2;ratioP2;P2;SDS_P1;SDS_P2;PMS_P1;PMS_P2;Temp;Humidity;BMP_temperature;BMP_pressure;BME280_temperature;BME280_humidity;BME280_pressure;Samples;Min_cycle;Max_cycle;Signal;HPM_P1;HPM_P2
2022/04/10 00:01:30;;;;;;;8.40;2.03;;;;;;;;;;5009437;28;20047;-72
2022/04/10 00:03:56;;;;;;;10.48;1.90;;;;;;;;;;5021421;28;20033;-72
2022/04/10 00:06:23;;;;;;;9.63;1.67;;;;;;;;;;5025563;28;20919;-72
2022/04/10 00:08:49;;;;;;;9.55;1.95;;;;;;;;;;5017969;28;20048;-72
2022/04/10 00:11:15;;;;;;;7.45;1.90;;;;;;;;;;5014594;28;20219;-72
2022/04/10 00:13:42;;;;;;;11.45;1.70;;;;;;;;;;5022024;28;20017;-72
2022/04/10 00:16:08;;;;;;;9.68;1.90;;;;;;;;;;5019098;28;20018;-72
2022/04/10 00:18:36;;;;;;;10.57;1.98;;;;;;;;;;5018048;28;20026;-72
2022/04/10 00:21:02;;;;;;;13.98;2.50;;;;;;;;;;5025308;28;20504;-72
2022/04/10 00:23:28;;;;;;;8.43;2.15;;;;;;;;;;5019915;28;20026;-72
2022/04/10 00:25:54;;;;;;;6.95;2.20;;;;;;;;;;5022127;28;20026;-72
2022/04/10 00:28:21;;;;;;;7.55;1.83;;;;;;;;;;5014548;28;20029;-72
2022/04/10 00:30:47;;;;;;;10.20;1.98;;;;;;;;;;5005082;28;20021;-72
2022/04/10 00:33:13;;;;;;;9.60;2.40;;;;;;;;;;5002403;28;20473;-72
2022/04/10 00:35:39;;;;;;;12.68;2.25;;;;;;;;;;5011831;28;20021;-73
2022/04/10 00:38:06;;;;;;;10.27;2.40;;;;;;;;;;5008454;28;20036;-72
2022/04/10 00:40:33;;;;;;;11.15;3.33;;;;;;;;;;5021254;28;20028;-72
2022/04/10 00:42:59;;;;;;;21.38;3.03;;;;;;;;;;5004946;28;20042;-72
2022/04/10 00:45:25;;;;;;;8.50;2.15;;;;;;;;;;5021812;28;20601;-72
2022/04/10 00:47:51;;;;;;;12.18;2.33;;;;;;;;;;5018811;28;20026;-72
2022/04/10 00:50:18;;;;;;;8.93;1.75;;;;;;;;;;5022056;28;20029;-72
2022/04/10 00:52:45;;;;;;;8.02;1.85;;;;;;;;;;5019055;28;20048;-72
2022/04/10 00:55:11;;;;;;;16.65;2.05;;;;;;;;;;5016471;28;20034;-72
2022/04/10 00:57:38;;;;;;;9.07;1.90;;;;;;;;;;5003011;28;20082;-72
2022/04/10 01:00:10;;;;;;;9.98;2.30;;;;;;;;;;5021086;28;20172;-72
2022/04/10 01:02:36;;;;;;;9.93;2.20;;;;;;;;;;5015546;28;20044;-71
2022/04/10 01:05:04;;;;;;;11.45;1.77;;;;;;;;;;5019429;28;20588;-72
2022/04/10 01:07:30;;;;;;;9.07;1.83;;;;;;;;;;5018333;28;20034;-72
2022/04/10 01:09:56;;;;;;;10.05;2.03;;;;;;;;;;5019263;28;20034;-72
2022/04/10 01:12:23;;;;;;;13.38;2.35;;;;;;;;;;5008764;28;20033;-72
2022/04/10 01:14:50;;;;;;;10.07;2.20;;;;;;;;;;5021452;28;20049;-71
2022/04/10 01:17:16;;;;;;;9.75;2.30;;;;;;;;;;5021123;28;20077;-72
2022/04/10 01:19:43;;;;;;;10.18;1.98;;;;;;;;;;5002340;28;20535;-72
2022/04/10 01:22:10;;;;;;;14.80;2.38;;;;;;;;;;4996323;28;20222;-72
2022/04/10 01:24:37;;;;;;;12.60;2.20;;;;;;;;;;5019842;28;20036;-72
2022/04/10 01:27:03;;;;;;;11.40;2.75;;;;;;;;;;5006918;28;20021;-72
2022/04/10 01:29:29;;;;;;;10.98;2.05;;;;;;;;;;5016785;28;20041;-72
2022/04/10 01:31:56;;;;;;;16.88;2.78;;;;;;;;;;5005058;28;20032;-72
2022/04/10 01:34:23;;;;;;;14.25;2.47;;;;;;;;;;5025652;28;20211;-72
2022/04/10 01:36:49;;;;;;;12.73;2.75;;;;;;;;;;5018172;28;20021;-72
2022/04/10 01:39:15;;;;;;;11.07;2.20;;;;;;;;;;5016600;28;20108;-72
2022/04/10 01:41:42;;;;;;;15.13;3.40;;;;;;;;;;5022585;28;20033;-72
2022/04/10 01:44:09;;;;;;;10.15;2.40;;;;;;;;;;5022021;28;20379;-72
2022/04/10 01:46:35;;;;;;;11.07;3.03;;;;;;;;;;5004506;28;20061;-72
2022/04/10 01:49:02;;;;;;;9.75;2.15;;;;;;;;;;5021787;28;20386;-73
2022/04/10 01:51:29;;;;;;;16.10;2.92;;;;;;;;;;5021291;28;20022;-72
2022/04/10 01:53:55;;;;;;;12.27;2.85;;;;;;;;;;5017351;28;20037;-72
2022/04/10 01:56:22;;;;;;;13.27;2.83;;;;;;;;;;5020304;28;20110;-72
2022/04/10 01:58:50;;;;;;;17.60;3.63;;;;;;;;;;5020204;28;20045;-72
2022/04/10 02:01:17;;;;;;;14.52;3.10;;;;;;;;;;5000651;28;20116;-71
2022/04/10 02:03:46;;;;;;;14.68;2.83;;;;;;;;;;5015444;28;20112;-72
2022/04/10 02:06:12;;;;;;;12.68;2.92;;;;;;;;;;5004250;28;20041;-72
2022/04/10 02:08:38;;;;;;;20.20;2.58;;;;;;;;;;5001641;28;20433;-72
2022/04/10 02:11:11;;;;;;;15.13;3.22;;;;;;;;;;5004942;28;20029;-72
2022/04/10 02:13:39;;;;;;;14.52;2.90;;;;;;;;;;4999264;28;20050;-72
2022/04/10 02:16:11;;;;;;;14.90;3.28;;;;;;;;;;4995345;28;20120;-72
2022/04/10 02:18:37;;;;;;;13.65;3.00;;;;;;;;;;5022027;28;20030;-72
2022/04/10 02:21:04;;;;;;;11.15;2.78;;;;;;;;;;5020568;28;20109;-71
2022/04/10 02:23:30;;;;;;;13.05;2.65;;;;;;;;;;5019042;28;20033;-71
2022/04/10 02:25:56;;;;;;;15.27;3.05;;;;;;;;;;5013438;28;20018;-72
2022/04/10 02:28:22;;;;;;;14.63;2.72;;;;;;;;;;4996842;28;20463;-72
2022/04/10 02:30:48;;;;;;;16.75;3.08;;;;;;;;;;5014340;28;20146;-72
2022/04/10 02:33:15;;;;;;;15.48;3.30;;;;;;;;;;5015555;28;20035;-72
2022/04/10 02:35:41;;;;;;;14.50;3.50;;;;;;;;;;5012273;28;20592;-72
2022/04/10 02:38:07;;;;;;;14.90;3.35;;;;;;;;;;5017485;28;20030;-72
2022/04/10 02:40:33;;;;;;;14.73;2.80;;;;;;;;;;5016865;28;20481;-72
2022/04/10 02:42:59;;;;;;;8.75;2.40;;;;;;;;;;5018727;28;20495;-72
2022/04/10 02:45:25;;;;;;;16.10;2.92;;;;;;;;;;5022098;28;20681;-72
2022/04/10 02:47:52;;;;;;;15.80;2.63;;;;;;;;;;5014586;28;20034;-71
2022/04/10 02:50:18;;;;;;;20.60;3.35;;;;;;;;;;5015134;28;20293;-72
2022/04/10 02:52:44;;;;;;;20.55;3.42;;;;;;;;;;5015019;28;20660;-72
2022/04/10 02:55:11;;;;;;;19.23;4.05;;;;;;;;;;5020632;28;20045;-71
2022/04/10 02:57:37;;;;;;;17.27;2.97;;;;;;;;;;5015600;28;20046;-72
2022/04/10 03:00:04;;;;;;;15.18;4.20;;;;;;;;;;5022324;28;20030;-72
2022/04/10 03:02:30;;;;;;;23.40;4.93;;;;;;;;;;5019693;28;20043;-72
2022/04/10 03:04:56;;;;;;;17.58;3.50;;;;;;;;;;5016926;28;20029;-72
2022/04/10 03:07:23;;;;;;;16.55;3.15;;;;;;;;;;5014091;28;20034;-71
2022/04/10 03:09:49;;;;;;;16.83;3.03;;;;;;;;;;4999903;28;20034;-72
2022/04/10 03:12:15;;;;;;;18.42;3.92;;;;;;;;;;5015437;28;20034;-71
2022/04/10 03:14:41;;;;;;;14.38;3.10;;;;;;;;;;5013117;28;20034;-72
2022/04/10 03:17:07;;;;;;;9.52;2.97;;;;;;;;;;5011628;28;20029;-72
2022/04/10 03:19:33;;;;;;;15.35;3.05;;;;;;;;;;5012150;28;20066;-72
2022/04/10 03:21:59;;;;;;;15.13;2.88;;;;;;;;;;5005764;28;20080;-71
2022/04/10 03:24:26;;;;;;;15.10;3.13;;;;;;;;;;4995246;28;20026;-72
2022/04/10 03:26:52;;;;;;;21.42;3.33;;;;;;;;;;5010554;28;20080;-71
2022/04/10 03:29:18;;;;;;;19.90;4.15;;;;;;;;;;5009404;28;20492;-73
2022/04/10 03:31:45;;;;;;;16.60;3.15;;;;;;;;;;5010196;28;20156;-72
2022/04/10 03:34:11;;;;;;;19.60;3.65;;;;;;;;;;5010125;28;20140;-72
2022/04/10 03:36:37;;;;;;;21.27;3.63;;;;;;;;;;5003528;28;20741;-71
2022/04/10 03:39:04;;;;;;;18.33;3.10;;;;;;;;;;5014210;28;20026;-72
2022/04/10 03:41:30;;;;;;;13.02;2.53;;;;;;;;;;5013276;28;20034;-71
2022/04/10 03:43:56;;;;;;;14.35;2.90;;;;;;;;;;5015066;28;20042;-71
2022/04/10 03:46:23;;;;;;;13.35;2.33;;;;;;;;;;5015562;28;20056;-72
2022/04/10 03:48:49;;;;;;;13.98;2.13;;;;;;;;;;5013962;28;20033;-72
2022/04/10 03:51:15;;;;;;;12.35;2.25;;;;;;;;;;5019203;28;20021;-72
2022/04/10 03:53:41;;;;;;;12.65;2.05;;;;;;;;;;5014114;28;20029;-72
2022/04/10 03:56:08;;;;;;;14.77;2.50;;;;;;;;;;5014374;28;20036;-72
2022/04/10 03:58:34;;;;;;;9.55;2.20;;;;;;;;;;5016994;28;20041;-72
2022/04/10 04:01:00;;;;;;;10.25;1.90;;;;;;;;;;5014833;28;20387;-72
2022/04/10 04:03:26;;;;;;;8.32;1.50;;;;;;;;;;5017386;28;20029;-72
2022/04/10 04:05:53;;;;;;;8.55;1.80;;;;;;;;;;5013239;28;20675;-72
2022/04/10 04:08:19;;;;;;;8.05;2.25;;;;;;;;;;5018791;28;20021;-72
2022/04/10 04:10:45;;;;;;;9.20;2.03;;;;;;;;;;5020904;28;20040;-72
2022/04/10 04:13:11;;;;;;;7.43;1.65;;;;;;;;;;5015213;28;20037;-72
2022/04/10 04:15:37;;;;;;;5.32;1.48;;;;;;;;;;5014903;28;20668;-72
2022/04/10 04:18:04;;;;;;;11.88;2.08;;;;;;;;;;5019125;28;20095;-72
2022/04/10 04:20:30;;;;;;;9.48;1.77;;;;;;;;;;5014918;28;20021;-73
2022/04/10 04:22:56;;;;;;;7.57;1.80;;;;;;;;;;5013911;28;20098;-72
2022/04/10 04:25:22;;;;;;;7.95;1.50;;;;;;;;;;5007747;28;20521;-72
2022/04/10 04:27:48;;;;;;;13.60;2.20;;;;;;;;;;5012574;28;20127;-72
2022/04/10 04:30:14;;;;;;;6.18;2.35;;;;;;;;;;5011750;28;20057;-72
2022/04/10 04:32:40;;;;;;;8.85;1.50;;;;;;;;;;5014424;28;20108;-72
2022/04/10 04:35:07;;;;;;;9.32;1.50;;;;;;;;;;5010471;28;20029;-72
2022/04/10 04:37:39;;;;;;;10.50;2.42;;;;;;;;;;5011781;28;20033;-72
2022/04/10 04:40:06;;;;;;;5.30;1.65;;;;;;;;;;5010501;28;20439;-72
2022/04/10 04:42:32;;;;;;;14.77;2.15;;;;;;;;;;5018573;28;20057;-71
2022/04/10 04:44:58;;;;;;;8.57;2.40;;;;;;;;;;5009658;28;20507;-72
2022/04/10 04:47:24;;;;;;;5.82;1.67;;;;;;;;;;5012586;28;20129;-72
2022/04/10 04:49:50;;;;;;;13.13;2.63;;;;;;;;;;5008547;28;20095;-72
2022/04/10 04:52:17;;;;;;;9.23;1.98;;;;;;;;;;5016605;28;20038;-71
2022/04/10 04:54:43;;;;;;;5.05;1.85;;;;;;;;;;4990030;28;20018;-72
2022/04/10 04:57:09;;;;;;;9.70;2.10;;;;;;;;;;4991107;28;20148;-71
2022/04/10 04:59:35;;;;;;;14.27;2.63;;;;;;;;;;5012843;28;20026;-72
2022/04/10 05:02:01;;;;;;;8.65;1.75;;;;;;;;;;5018268;28;20033;-71
2022/04/10 05:04:28;;;;;;;12.50;2.35;;;;;;;;;;5014168;28;20025;-71
2022/04/10 05:06:54;;;;;;;12.52;3.03;;;;;;;;;;5016136;28;20030;-72
2022/04/10 05:09:20;;;;;;;10.65;1.80;;;;;;;;;;5010524;28;20817;-72
2022/04/10 05:11:46;;;;;;;9.77;1.70;;;;;;;;;;5016024;28;20033;-71
2022/04/10 05:14:12;;;;;;;12.82;2.55;;;;;;;;;;5011177;28;20470;-72
2022/04/10 05:16:38;;;;;;;11.30;2.42;;;;;;;;;;5014773;28;20075;-71
2022/04/10 05:19:04;;;;;;;5.97;1.50;;;;;;;;;;5016111;28;20026;-72
2022/04/10 05:21:31;;;;;;;5.88;1.60;;;;;;;;;;4993836;28;20884;-72
2022/04/10 05:23:57;;;;;;;8.00;1.52;;;;;;;;;;5015224;28;20037;-71
2022/04/10 05:26:23;;;;;;;19.48;2.65;;;;;;;;;;5009912;28;20033;-72
2022/04/10 05:28:49;;;;;;;7.00;1.75;;;;;;;;;;5011696;28;20034;-72
2022/04/10 05:31:15;;;;;;;9.40;2.08;;;;;;;;;;5014280;28;20037;-72
2022/04/10 05:33:42;;;;;;;10.57;1.92;;;;;;;;;;5010859;28;20057;-72
2022/04/10 05:36:08;;;;;;;8.43;1.73;;;;;;;;;;5015328;28;20028;-73
2022/04/10 05:38:34;;;;;;;10.98;1.83;;;;;;;;;;5013530;28;20105;-72
2022/04/10 05:41:00;;;;;;;12.80;1.80;;;;;;;;;;5013296;28;20021;-72
2022/04/10 05:43:26;;;;;;;7.75;1.77;;;;;;;;;;5013480;28;20077;-71
2022/04/10 05:45:53;;;;;;;6.70;2.15;;;;;;;;;;5012384;28;20034;-71
2022/04/10 05:48:19;;;;;;;7.47;2.05;;;;;;;;;;5014243;28;20664;-71
2022/04/10 05:50:45;;;;;;;8.02;1.98;;;;;;;;;;4992915;28;20408;-72
2022/04/10 05:53:11;;;;;;;9.65;2.22;;;;;;;;;;5014830;28;20837;-72
2022/04/10 05:55:37;;;;;;;6.47;1.52;;;;;;;;;;5005420;28;20034;-72
2022/04/10 05:58:04;;;;;;;9.38;1.60;;;;;;;;;;5011594;28;20385;-71
2022/04/10 06:00:30;;;;;;;9.55;1.50;;;;;;;;;;5013667;28;20038;-71
2022/04/10 06:02:56;;;;;;;8.82;1.73;;;;;;;;;;5012673;28;20111;-71
2022/04/10 06:05:23;;;;;;;10.05;1.80;;;;;;;;;;5012549;28;20033;-71
2022/04/10 06:07:49;;;;;;;11.15;2.25;;;;;;;;;;5012396;28;20041;-71
2022/04/10 06:10:15;;;;;;;7.55;2.08;;;;;;;;;;5015225;28;20190;-71
2022/04/10 06:12:41;;;;;;;9.35;1.80;;;;;;;;;;5008732;28;20028;-71
2022/04/10 06:15:08;;;;;;;9.95;1.80;;;;;;;;;;5010709;28;20026;-71
2022/04/10 06:17:34;;;;;;;10.98;2.30;;;;;;;;;;5008153;28;20034;-71
2022/04/10 06:20:00;;;;;;;15.88;2.05;;;;;;;;;;5008811;28;20496;-71
2022/04/10 06:22:26;;;;;;;9.27;2.20;;;;;;;;;;5012299;28;20041;-71
2022/04/10 06:24:54;;;;;;;8.18;2.55;;;;;;;;;;4992529;28;20026;-71
2022/04/10 06:27:20;;;;;;;9.02;2.20;;;;;;;;;;5007722;28;20029;-72
2022/04/10 06:29:47;;;;;;;9.60;1.60;;;;;;;;;;5009869;28;20749;-71
2022/04/10 06:32:14;;;;;;;9.80;2.17;;;;;;;;;;5015794;28;20109;-72
2022/04/10 06:34:40;;;;;;;12.88;2.33;;;;;;;;;;5009721;28;20021;-71
2022/04/10 06:37:07;;;;;;;13.50;2.35;;;;;;;;;;5005439;28;20033;-71
2022/04/10 06:39:34;;;;;;;11.43;1.95;;;;;;;;;;5005959;28;20356;-71
2022/04/10 06:42:00;;;;;;;7.82;1.75;;;;;;;;;;4994024;28;20034;-71
2022/04/10 06:44:26;;;;;;;12.65;2.90;;;;;;;;;;5010645;28;20056;-71
2022/04/10 06:46:52;;;;;;;12.38;2.40;;;;;;;;;;5013786;28;20025;-72
2022/04/10 06:49:20;;;;;;;9.70;2.00;;;;;;;;;;5013686;28;20026;-71
2022/04/10 06:51:46;;;;;;;8.15;2.13;;;;;;;;;;5010540;28;20371;-71
2022/04/10 06:54:12;;;;;;;12.95;3.05;;;;;;;;;;5008261;28;20079;-71
2022/04/10 06:56:38;;;;;;;12.57;1.92;;;;;;;;;;5013967;28;20025;-71
2022/04/10 06:59:04;;;;;;;12.63;2.58;;;;;;;;;;5011711;28;20123;-71
2022/04/10 07:01:31;;;;;;;18.17;2.35;;;;;;;;;;5011535;28;20030;-71
2022/04/10 07:03:58;;;;;;;13.15;2.50;;;;;;;;;;5011846;28;20112;-71
2022/04/10 07:06:24;;;;;;;13.30;2.17;;;;;;;;;;5008737;28;20132;-71
2022/04/10 07:08:50;;;;;;;12.65;2.58;;;;;;;;;;5014277;28;20477;-71
2022/04/10 07:11:16;;;;;;;11.95;2.25;;;;;;;;;;5006832;28;20107;-71
2022/04/10 07:13:42;;;;;;;11.93;2.22;;;;;;;;;;5014181;28;20033;-71
2022/04/10 07:16:09;;;;;;;12.65;3.05;;;;;;;;;;5018552;28;20473;-71
2022/04/10 07:18:35;;;;;;;10.23;2.10;;;;;;;;;;5015022;28;20104;-71
2022/04/10 07:21:01;;;;;;;10.85;2.20;;;;;;;;;;5018618;28;20049;-71
2022/04/10 07:23:43;;;;;;;14.38;2.85;;;;;;;;;;5004587;28;20091;-72
2022/04/10 07:26:09;;;;;;;;;;;;;;;;;;5017486;28;20160;-70
2022/04/10 07:28:37;;;;;;;16.85;2.35;;;;;;;;;;5015640;28;19909;-72
2022/04/10 07:31:05;;;;;;;10.07;2.63;;;;;;;;;;5017816;28;20037;-71
2022/04/10 07:33:31;;;;;;;13.02;2.70;;;;;;;;;;5017689;28;20109;-71
2022/04/10 07:35:57;;;;;;;14.55;2.17;;;;;;;;;;5017338;28;20205;-71
2022/04/10 07:38:24;;;;;;;8.18;2.15;;;;;;;;;;5019636;28;20036;-71
2022/04/10 07:40:50;;;;;;;11.38;2.35;;;;;;;;;;5018382;28;20033;-71
2022/04/10 07:43:16;;;;;;;11.65;2.22;;;;;;;;;;5019470;28;20044;-71
2022/04/10 07:48:27;;;;;;;12.75;2.40;;;;;;;;;;5016555;28;20063;-71
2022/04/10 07:50:55;;;;;;;11.75;2.38;;;;;;;;;;5013578;28;20033;-71
2022/04/10 07:53:21;;;;;;;10.75;2.20;;;;;;;;;;5019048;28;20400;-71
2022/04/10 07:55:48;;;;;;;7.80;1.92;;;;;;;;;;5013102;28;20092;-71
2022/04/10 07:58:14;;;;;;;9.93;2.03;;;;;;;;;;5017488;28;20041;-71
2022/04/10 08:00:40;;;;;;;16.52;2.55;;;;;;;;;;5018726;28;20101;-71
2022/04/10 08:03:06;;;;;;;12.65;2.65;;;;;;;;;;5019004;28;20034;-71
2022/04/10 08:05:32;;;;;;;9.45;2.40;;;;;;;;;;5019744;28;20109;-72
2022/04/10 08:07:58;;;;;;;10.93;2.35;;;;;;;;;;5017651;28;20076;-72
2022/04/10 08:10:25;;;;;;;10.48;2.40;;;;;;;;;;5018259;28;20017;-71
2022/04/10 08:12:51;;;;;;;9.45;1.90;;;;;;;;;;5020247;28;20031;-71
2022/04/10 08:15:18;;;;;;;14.00;2.45;;;;;;;;;;5014470;28;20481;-72
2022/04/10 08:17:44;;;;;;;11.48;2.10;;;;;;;;;;5015949;28;20044;-71
2022/04/10 08:20:11;;;;;;;12.80;2.88;;;;;;;;;;5019062;28;20025;-72
2022/04/10 08:22:39;;;;;;;10.32;2.22;;;;;;;;;;5015921;28;20030;-71
2022/04/10 08:25:06;;;;;;;9.55;2.65;;;;;;;;;;5019786;28;20033;-71
2022/04/10 08:27:33;;;;;;;10.00;2.13;;;;;;;;;;5014616;28;20069;-71
2022/04/10 08:29:59;;;;;;;9.65;2.35;;;;;;;;;;5014210;28;20022;-71
2022/04/10 08:32:25;;;;;;;12.40;2.22;;;;;;;;;;4996016;28;20034;-71
2022/04/10 08:34:52;;;;;;;11.98;2.38;;;;;;;;;;5014858;28;20040;-71
2022/04/10 08:37:18;;;;;;;10.15;2.20;;;;;;;;;;5015379;28;20396;-71
2022/04/10 08:39:45;;;;;;;12.05;2.72;;;;;;;;;;5012651;28;20660;-71
2022/04/10 08:42:11;;;;;;;11.45;2.63;;;;;;;;;;5009510;28;20128;-71
2022/04/10 08:44:37;;;;;;;12.45;2.28;;;;;;;;;;5014133;28;20025;-71
2022/04/10 08:47:04;;;;;;;13.65;2.63;;;;;;;;;;5008641;28;20378;-72
2022/04/10 08:49:31;;;;;;;12.25;2.35;;;;;;;;;;4996000;28;20087;-72
2022/04/10 08:51:57;;;;;;;13.43;2.47;;;;;;;;;;5011284;28;20038;-72
2022/04/10 08:54:24;;;;;;;11.60;2.42;;;;;;;;;;5012900;28;20389;-72
2022/04/10 08:56:50;;;;;;;19.77;2.88;;;;;;;;;;5011439;28;20265;-72
2022/04/10 08:59:20;;;;;;;10.48;2.20;;;;;;;;;;5009598;28;20051;-72
2022/04/10 09:01:46;;;;;;;13.35;3.28;;;;;;;;;;5016801;28;20045;-72
2022/04/10 09:04:14;;;;;;;12.73;2.78;;;;;;;;;;5011149;28;20025;-72
2022/04/10 09:06:40;;;;;;;14.77;2.53;;;;;;;;;;5014110;28;20034;-72
2022/04/10 09:09:17;;;;;;;16.73;3.38;;;;;;;;;;5011582;28;20168;-72
2022/04/10 09:11:43;;;;;;;10.52;2.28;;;;;;;;;;5011273;28;20026;-72
2022/04/10 09:14:10;;;;;;;14.63;2.85;;;;;;;;;;5012942;28;20025;-72
2022/04/10 09:16:36;;;;;;;16.35;2.88;;;;;;;;;;5007439;28;20030;-72
2022/04/10 09:19:08;;;;;;;17.73;2.55;;;;;;;;;;5015463;28;20058;-72
2022/04/10 09:21:41;;;;;;;14.43;2.40;;;;;;;;;;5014160;28;20061;-72
2022/04/10 09:24:11;;;;;;;17.17;3.38;;;;;;;;;;5010025;28;20045;-72
2022/04/10 09:26:45;;;;;;;14.57;2.90;;;;;;;;;;5011861;28;20116;-71
2022/04/10 09:29:11;;;;;;;13.77;2.80;;;;;;;;;;5010414;28;20107;-72
2022/04/10 09:31:37;;;;;;;14.88;2.72;;;;;;;;;;5014236;28;20512;-72
2022/04/10 09:34:08;;;;;;;13.05;2.58;;;;;;;;;;5016056;28;20526;-72
2022/04/10 09:36:37;;;;;;;15.10;3.28;;;;;;;;;;5011811;28;20036;-75
2022/04/10 09:39:04;;;;;;;15.27;3.05;;;;;;;;;;5018123;28;20032;-72
2022/04/10 09:41:31;;;;;;;16.23;3.72;;;;;;;;;;5014733;28;20086;-71
2022/04/10 09:44:01;;;;;;;19.10;3.78;;;;;;;;;;5008121;28;20040;-72
2022/04/10 09:46:27;;;;;;;13.57;2.60;;;;;;;;;;4994819;28;20124;-72
2022/04/10 09:48:53;;;;;;;10.85;2.90;;;;;;;;;;5009922;28;20413;-72
2022/04/10 09:51:19;;;;;;;17.65;2.72;;;;;;;;;;5011872;28;20538;-71
2022/04/10 09:54:01;;;;;;;17.13;3.33;;;;;;;;;;5012059;28;20040;-72
2022/04/10 09:56:28;;;;;;;16.85;3.50;;;;;;;;;;5014462;28;20030;-72
2022/04/10 09:58:56;;;;;;;13.43;2.67;;;;;;;;;;5011985;28;20045;-72
2022/04/10 10:01:23;;;;;;;12.32;3.03;;;;;;;;;;5008363;28;20050;-81
2022/04/10 10:03:51;;;;;;;16.33;3.45;;;;;;;;;;5014059;28;20029;-72
2022/04/10 10:06:19;;;;;;;16.15;2.85;;;;;;;;;;5012877;28;20033;-71
2022/04/10 10:08:45;;;;;;;17.63;4.30;;;;;;;;;;5022510;28;20622;-72
2022/04/10 10:11:12;;;;;;;11.32;3.05;;;;;;;;;;5000994;28;20045;-71
2022/04/10 10:13:38;;;;;;;16.80;4.20;;;;;;;;;;5011062;28;20072;-74
2022/04/10 10:16:05;;;;;;;18.30;3.72;;;;;;;;;;5012899;28;20416;-72
2022/04/10 10:18:31;;;;;;;17.80;3.28;;;;;;;;;;5006256;28;20879;-71
2022/04/10 10:20:57;;;;;;;12.85;2.97;;;;;;;;;;4993577;28;20040;-71
2022/04/10 10:23:25;;;;;;;19.08;3.45;;;;;;;;;;5011932;28;20145;-71
2022/04/10 10:26:04;;;;;;;17.55;3.53;;;;;;;;;;5012125;28;20026;-72
2022/04/10 10:28:55;;;;;;;15.50;2.97;;;;;;;;;;5010518;28;20037;-73
2022/04/10 10:31:23;;;;;;;17.45;3.75;;;;;;;;;;5009309;28;20026;-72
2022/04/10 10:33:55;;;;;;;14.93;3.33;;;;;;;;;;5012811;28;20093;-72
2022/04/10 10:36:28;;;;;;;13.13;3.58;;;;;;;;;;5016088;28;20048;-71
2022/04/10 10:38:55;;;;;;;18.92;3.63;;;;;;;;;;5009810;28;20144;-73
2022/04/10 10:41:21;;;;;;;15.07;3.17;;;;;;;;;;5007702;28;20614;-75
2022/04/10 10:43:48;;;;;;;13.27;2.78;;;;;;;;;;5010663;28;20100;-73
2022/04/10 10:46:20;;;;;;;14.48;3.22;;;;;;;;;;5006587;28;20040;-74
2022/04/10 10:48:47;;;;;;;10.60;2.72;;;;;;;;;;5007428;28;20270;-74
2022/04/10 10:51:13;;;;;;;17.08;3.03;;;;;;;;;;5014459;28;20036;-71
2022/04/10 10:53:51;;;;;;;15.10;3.17;;;;;;;;;;5012635;28;20029;-72
2022/04/10 10:56:21;;;;;;;12.23;2.58;;;;;;;;;;5010253;28;20113;-71
2022/04/10 10:58:50;;;;;;;17.00;3.22;;;;;;;;;;5007695;28;20045;-71
2022/04/10 11:01:20;;;;;;;12.60;2.65;;;;;;;;;;5013036;28;20033;-72
2022/04/10 11:04:08;;;;;;;16.10;3.33;;;;;;;;;;5010082;28;20552;-73
2022/04/10 11:06:44;;;;;;;16.17;2.70;;;;;;;;;;5010335;28;20393;-71
2022/04/10 11:09:30;;;;;;;14.70;2.33;;;;;;;;;;5013032;28;20038;-71
2022/04/10 11:11:57;;;;;;;9.32;2.42;;;;;;;;;;5008831;28;20032;-71
2022/04/10 11:14:39;;;;;;;14.50;2.60;;;;;;;;;;5010434;28;20120;-71
2022/04/10 11:17:24;;;;;;;8.43;2.83;;;;;;;;;;5010470;28;20029;-72
2022/04/10 11:19:54;;;;;;;9.30;2.45;;;;;;;;;;5006969;28;20029;-71
2022/04/10 11:22:25;;;;;;;7.15;2.10;;;;;;;;;;5003665;28;20088;-75
2022/04/10 11:24:57;;;;;;;10.37;2.30;;;;;;;;;;5008342;28;20042;-72
2022/04/10 11:27:43;;;;;;;9.05;2.65;;;;;;;;;;5014533;28;20037;-71
2022/04/10 11:30:09;;;;;;;8.55;1.90;;;;;;;;;;5013177;28;20030;-71
2022/04/10 11:32:43;;;;;;;12.60;2.05;;;;;;;;;;5013975;28;20030;-72
2022/04/10 11:35:18;;;;;;;11.18;2.63;;;;;;;;;;5016114;28;20457;-71
2022/04/10 11:37:47;;;;;;;11.85;2.60;;;;;;;;;;4996764;28;20290;-75
2022/04/10 11:40:14;;;;;;;11.82;2.72;;;;;;;;;;5009757;28;20029;-70
2022/04/10 11:42:40;;;;;;;8.80;2.50;;;;;;;;;;5010784;28;20044;-74
2022/04/10 11:45:08;;;;;;;7.85;1.88;;;;;;;;;;5012538;28;20112;-71
2022/04/10 11:47:35;;;;;;;9.30;2.08;;;;;;;;;;5003665;28;20439;-71
2022/04/10 11:50:01;;;;;;;5.18;2.25;;;;;;;;;;5009593;28;20029;-71
2022/04/10 11:52:27;;;;;;;6.95;2.30;;;;;;;;;;5015888;28;20068;-75
2022/04/10 11:54:54;;;;;;;9.35;1.92;;;;;;;;;;5007568;28;20033;-73
2022/04/10 11:57:20;;;;;;;10.57;1.95;;;;;;;;;;5013256;28;20053;-76
2022/04/10 11:59:46;;;;;;;9.73;2.08;;;;;;;;;;5014722;28;20402;-71
2022/04/10 12:02:13;;;;;;;7.05;1.88;;;;;;;;;;5013523;28;20041;-81
2022/04/10 12:04:40;;;;;;;8.88;2.28;;;;;;;;;;5010151;28;20033;-71
2022/04/10 12:07:24;;;;;;;6.47;2.25;;;;;;;;;;5013283;28;20079;-70
2022/04/10 12:09:54;;;;;;;9.50;2.03;;;;;;;;;;5017308;28;20025;-70
2022/04/10 12:12:22;;;;;;;9.88;1.83;;;;;;;;;;5014660;28;20041;-71
2022/04/10 12:14:48;;;;;;;6.82;1.90;;;;;;;;;;5012558;28;20112;-71
2022/04/10 12:17:19;;;;;;;10.30;3.03;;;;;;;;;;5020552;28;20029;-71
2022/04/10 12:19:45;;;;;;;14.93;3.10;;;;;;;;;;5010807;28;20545;-74
2022/04/10 12:22:12;;;;;;;7.82;1.80;;;;;;;;;;4995434;28;20096;-73
2022/04/10 12:24:38;;;;;;;11.80;2.65;;;;;;;;;;5011345;28;20049;-70
2022/04/10 12:27:06;;;;;;;7.70;2.00;;;;;;;;;;5016705;28;20036;-74
2022/04/10 12:29:34;;;;;;;13.50;2.30;;;;;;;;;;5009870;28;20030;-71
2022/04/10 12:32:00;;;;;;;9.90;2.00;;;;;;;;;;5019714;28;20033;-71
2022/04/10 12:34:33;;;;;;;10.55;2.42;;;;;;;;;;5014249;28;20437;-71
2022/04/10 12:37:07;;;;;;;6.50;2.28;;;;;;;;;;5014473;28;20133;-77
2022/04/10 12:39:33;;;;;;;7.57;2.20;;;;;;;;;;5013332;28;20026;-78
2022/04/10 12:42:07;;;;;;;12.70;2.10;;;;;;;;;;4995199;28;20048;-74
2022/04/10 12:44:33;;;;;;;14.30;2.45;;;;;;;;;;5014438;28;20033;-71
2022/04/10 12:46:59;;;;;;;12.95;2.40;;;;;;;;;;5009966;28;20623;-71
2022/04/10 12:49:25;;;;;;;6.97;2.03;;;;;;;;;;5009644;28;20029;-71
2022/04/10 12:51:56;;;;;;;8.02;2.22;;;;;;;;;;5012587;28;20029;-71
2022/04/10 12:54:34;;;;;;;11.23;2.30;;;;;;;;;;5019399;28;20048;-71
2022/04/10 12:57:00;;;;;;;13.13;2.45;;;;;;;;;;5011773;28;20068;-72
2022/04/10 12:59:36;;;;;;;8.35;1.83;;;;;;;;;;5016971;28;20032;-71
2022/04/10 13:02:03;;;;;;;16.13;2.42;;;;;;;;;;5012594;28;20037;-71
2022/04/10 13:04:29;;;;;;;17.30;2.95;;;;;;;;;;4992804;28;20021;-76
2022/04/10 13:06:56;;;;;;;10.65;2.60;;;;;;;;;;5014677;28;20037;-72
2022/04/10 13:09:22;;;;;;;11.95;2.55;;;;;;;;;;5011101;28;20033;-75
2022/04/10 13:11:50;;;;;;;13.40;3.58;;;;;;;;;;5011605;28;20489;-71
2022/04/10 13:14:16;;;;;;;11.88;2.55;;;;;;;;;;5010698;28;20047;-74
2022/04/10 13:16:45;;;;;;;8.30;1.50;;;;;;;;;;5009166;28;20037;-71
2022/04/10 13:19:14;;;;;;;12.55;2.08;;;;;;;;;;5009076;28;20064;-71
2022/04/10 13:21:42;;;;;;;25.27;3.22;;;;;;;;;;5009140;28;20037;-71
2022/04/10 13:24:09;;;;;;;8.75;1.73;;;;;;;;;;5015478;28;20116;-71
2022/04/10 13:26:36;;;;;;;6.45;1.30;;;;;;;;;;5010698;28;20022;-71
2022/04/10 13:29:04;;;;;;;11.20;1.92;;;;;;;;;;4994989;28;20107;-71
2022/04/10 13:31:30;;;;;;;6.70;1.30;;;;;;;;;;5014610;28;20057;-72
2022/04/10 13:33:57;;;;;;;9.05;1.95;;;;;;;;;;5015684;28;20519;-72
2022/04/10 13:36:23;;;;;;;5.78;1.55;;;;;;;;;;5018047;28;20038;-73
2022/04/10 13:38:49;;;;;;;12.82;2.75;;;;;;;;;;5017525;28;20033;-74
2022/04/10 13:41:15;;;;;;;10.40;2.05;;;;;;;;;;5012474;28;20061;-72
2022/04/10 13:43:42;;;;;;;8.43;1.85;;;;;;;;;;5007395;28;20034;-74
2022/04/10 13:46:08;;;;;;;6.32;1.73;;;;;;;;;;5014274;28;20112;-71
2022/04/10 13:48:34;;;;;;;11.27;1.70;;;;;;;;;;4993773;28;20025;-71
2022/04/10 13:51:02;;;;;;;8.50;1.50;;;;;;;;;;5012550;28;20033;-72
2022/04/10 13:53:28;;;;;;;8.02;1.48;;;;;;;;;;5012676;28;20033;-74
2022/04/10 13:55:54;;;;;;;4.80;1.50;;;;;;;;;;4988824;28;20898;-72
2022/04/10 13:58:21;;;;;;;8.63;2.53;;;;;;;;;;5011597;28;20053;-74
2022/04/10 14:00:47;;;;;;;9.75;1.60;;;;;;;;;;5011505;28;20041;-77
2022/04/10 14:03:13;;;;;;;8.18;1.50;;;;;;;;;;5012994;28;20548;-72
2022/04/10 14:05:40;;;;;;;8.70;1.60;;;;;;;;;;5011931;28;20030;-72
2022/04/10 14:08:06;;;;;;;6.30;1.15;;;;;;;;;;5016295;28;20401;-72
2022/04/10 14:10:32;;;;;;;10.10;1.80;;;;;;;;;;5006301;28;20021;-72
2022/04/10 14:12:58;;;;;;;8.30;1.52;;;;;;;;;;5018180;28;20037;-72
2022/04/10 14:15:24;;;;;;;4.30;1.33;;;;;;;;;;5005103;28;20647;-72
2022/04/10 14:17:55;;;;;;;5.38;1.58;;;;;;;;;;5017716;28;20021;-73
2022/04/10 14:20:22;;;;;;;4.78;1.45;;;;;;;;;;5011815;28;20039;-73
2022/04/10 14:22:48;;;;;;;5.47;1.92;;;;;;;;;;5009835;28;20413;-73
2022/04/10 14:25:14;;;;;;;5.57;1.42;;;;;;;;;;5009047;28;20030;-72
2022/04/10 14:27:41;;;;;;;3.65;1.38;;;;;;;;;;5014474;28;20096;-71
2022/04/10 14:30:07;;;;;;;4.95;1.48;;;;;;;;;;5013388;28;20082;-75
2022/04/10 14:32:35;;;;;;;7.00;1.45;;;;;;;;;;5011092;28;20033;-76
2022/04/10 14:35:01;;;;;;;7.65;1.90;;;;;;;;;;5009354;28;20056;-71
2022/04/10 14:37:27;;;;;;;8.50;1.63;;;;;;;;;;5013526;28;20034;-71
2022/04/10 14:39:53;;;;;;;9.70;1.48;;;;;;;;;;5015545;28;20029;-72